sensor_id;sensor_type;location;lat;lon;timestamp;pressure;altitude;pressure_sealevel;temperature;humidity
56241;BME280;42155;53.096;23.226;2023-05-01T00:01:16;100466.56;;;3.18;60.96
56241;BME280;42155;53.096;23.226;2023-05-01T00:03:17;100493.41;;;3.25;60.73
56241;BME280;42155;53.096;23.226;2023-05-01T00:05:17;100483.03;;;3.22;61.17
56241;BME280;42155;53.096;23.226;2023-05-01T00:07:18;100489.41;;;3.16;61.07
56241;BME280;42155;53.096;23.226;2023-05-01T00:09:18;100465.72;;;2.97;60.96
56241;BME280;42155;53.096;23.226;2023-05-01T00:11:18;100467.59;;;2.94;61.35
56241;BME280;42155;53.096;23.226;2023-05-01T00:13:19;100482.22;;;2.99;61.58
56241;BME280;42155;53.096;23.226;2023-05-01T00:15:19;100496.25;;;2.98;61.45
56241;BME280;42155;53.096;23.226;2023-05-01T00:17:19;100493.16;;;2.89;61.48
56241;BME280;42155;53.096;23.226;2023-05-01T00:19:20;100502.13;;;2.83;61.98
56241;BME280;42155;53.096;23.226;2023-05-01T00:21:20;100498.69;;;2.81;62.14
56241;BME280;42155;53.096;23.226;2023-05-01T00:23:20;100492.19;;;2.69;62.16
56241;BME280;42155;53.096;23.226;2023-05-01T00:25:21;100494.84;;;2.68;62.40
56241;BME280;42155;53.096;23.226;2023-05-01T00:27:21;100491.63;;;2.61;62.45
56241;BME280;42155;53.096;23.226;2023-05-01T00:29:21;100447.00;;;2.19;62.72
56241;BME280;42155;53.096;23.226;2023-05-01T00:31:23;100497.28;;;2.50;62.50
56241;BME280;42155;53.096;23.226;2023-05-01T00:33:23;100486.34;;;2.39;62.80
56241;BME280;42155;53.096;23.226;2023-05-01T00:35:24;100482.94;;;2.37;62.89
56241;BME280;42155;53.096;23.226;2023-05-01T00:37:24;100496.97;;;2.36;63.38
56241;BME280;42155;53.096;23.226;2023-05-01T00:39:25;100509.25;;;2.34;62.82
56241;BME280;42155;53.096;23.226;2023-05-01T00:41:25;100509.31;;;2.33;63.47
56241;BME280;42155;53.096;23.226;2023-05-01T00:43:25;100499.13;;;2.25;63.15
56241;BME280;42155;53.096;23.226;2023-05-01T00:45:26;100509.34;;;2.31;63.08
56241;BME280;42155;53.096;23.226;2023-05-01T00:47:26;100509.53;;;2.26;63.35
56241;BME280;42155;53.096;23.226;2023-05-01T00:49:27;100469.47;;;2.01;63.33
56241;BME280;42155;53.096;23.226;2023-05-01T00:51:28;100520.81;;;2.28;63.22
56241;BME280;42155;53.096;23.226;2023-05-01T00:53:29;100502.94;;;2.16;63.48
56241;BME280;42155;53.096;23.226;2023-05-01T00:55:31;100515.91;;;2.19;63.60
56241;BME280;42155;53.096;23.226;2023-05-01T00:57:32;100515.91;;;2.19;63.22
56241;BME280;42155;53.096;23.226;2023-05-01T00:59:32;100518.59;;;2.18;64.04
56241;BME280;42155;53.096;23.226;2023-05-01T01:01:33;100496.59;;;1.98;64.04
56241;BME280;42155;53.096;23.226;2023-05-01T01:03:33;100526.72;;;2.10;64.12
56241;BME280;42155;53.096;23.226;2023-05-01T01:05:38;100522.44;;;2.08;64.06
56241;BME280;42155;53.096;23.226;2023-05-01T01:07:46;100527.81;;;2.04;63.59
56241;BME280;42155;53.096;23.226;2023-05-01T01:10:08;100529.63;;;2.02;64.21
56241;BME280;42155;53.096;23.226;2023-05-01T01:12:32;100527.81;;;2.04;64.12
56241;BME280;42155;53.096;23.226;2023-05-01T01:16:56;100532.91;;;2.08;63.52
56241;BME280;42155;53.096;23.226;2023-05-01T01:19:05;100524.97;;;2.11;63.99
56241;BME280;42155;53.096;23.226;2023-05-01T01:34:46;100434.94;;;1.43;64.25
56241;BME280;42155;53.096;23.226;2023-05-01T01:36:52;100530.69;;;1.97;64.46
56241;BME280;42155;53.096;23.226;2023-05-01T01:39:04;100533.16;;;2.01;64.37
56241;BME280;42155;53.096;23.226;2023-05-01T01:41:16;100531.50;;;1.99;64.11
56241;BME280;42155;53.096;23.226;2023-05-01T01:43:19;100532.47;;;1.96;64.49
56241;BME280;42155;53.096;23.226;2023-05-01T01:45:23;100536.91;;;1.94;64.22
56241;BME280;42155;53.096;23.226;2023-05-01T01:47:28;100526.66;;;1.88;64.79
56241;BME280;42155;53.096;23.226;2023-05-01T01:49:30;100535.56;;;1.83;64.74
56241;BME280;42155;53.096;23.226;2023-05-01T01:51:31;100537.44;;;1.79;65.25
56241;BME280;42155;53.096;23.226;2023-05-01T01:53:34;100479.25;;;1.47;65.20
56241;BME280;42155;53.096;23.226;2023-05-01T01:55:38;100530.72;;;1.72;64.85
56241;BME280;42155;53.096;23.226;2023-05-01T01:57:40;100535.03;;;1.73;65.08
56241;BME280;42155;53.096;23.226;2023-05-01T01:59:41;100538.56;;;1.72;65.08
56241;BME280;42155;53.096;23.226;2023-05-01T02:01:42;100536.06;;;1.69;65.00
56241;BME280;42155;53.096;23.226;2023-05-01T02:03:43;100537.00;;;1.66;65.06
56241;BME280;42155;53.096;23.226;2023-05-01T02:05:45;100527.59;;;1.61;65.05
56241;BME280;42155;53.096;23.226;2023-05-01T02:07:49;100546.63;;;1.66;65.19
56241;BME280;42155;53.096;23.226;2023-05-01T02:09:51;100537.06;;;1.65;65.05
56241;BME280;42155;53.096;23.226;2023-05-01T02:11:53;100533.59;;;1.64;65.03
56241;BME280;42155;53.096;23.226;2023-05-01T02:13:54;100543.22;;;1.64;65.76
56241;BME280;42155;53.096;23.226;2023-05-01T02:15:57;100542.47;;;1.60;65.76
56241;BME280;42155;53.096;23.226;2023-05-01T02:18:02;100546.78;;;1.61;65.77
56241;BME280;42155;53.096;23.226;2023-05-01T02:20:04;100536.47;;;1.57;65.51
56241;BME280;42155;53.096;23.226;2023-05-01T02:22:06;100548.66;;;1.58;65.87
56241;BME280;42155;53.096;23.226;2023-05-01T02:24:07;100499.91;;;1.30;65.64
56241;BME280;42155;53.096;23.226;2023-05-01T02:26:12;100540.09;;;1.52;65.81
56241;BME280;42155;53.096;23.226;2023-05-01T02:28:16;100560.91;;;1.56;66.06
56241;BME280;42155;53.096;23.226;2023-05-01T02:30:20;100551.28;;;1.58;65.76
56241;BME280;42155;53.096;23.226;2023-05-01T02:32:20;100562.63;;;1.57;65.86
56241;BME280;42155;53.096;23.226;2023-05-01T02:34:21;100559.06;;;1.59;66.34
56241;BME280;42155;53.096;23.226;2023-05-01T02:36:21;100535.84;;;1.50;65.97
56241;BME280;42155;53.096;23.226;2023-05-01T02:38:21;100551.00;;;1.65;66.05
56241;BME280;42155;53.096;23.226;2023-05-01T02:40:23;100506.59;;;1.39;66.14
56241;BME280;42155;53.096;23.226;2023-05-01T02:42:24;100550.25;;;1.62;66.26
56241;BME280;42155;53.096;23.226;2023-05-01T02:44:26;100521.38;;;1.40;65.92
56241;BME280;42155;53.096;23.226;2023-05-01T02:46:29;100541.81;;;1.53;66.48
56241;BME280;42155;53.096;23.226;2023-05-01T02:48:31;100555.91;;;1.49;66.53
56241;BME280;42155;53.096;23.226;2023-05-01T02:50:33;100550.16;;;1.38;66.59
56241;BME280;42155;53.096;23.226;2023-05-01T02:52:33;100554.50;;;1.39;66.51
56241;BME280;42155;53.096;23.226;2023-05-01T02:54:35;100560.63;;;1.38;66.50
56241;BME280;42155;53.096;23.226;2023-05-01T02:56:36;100550.63;;;1.24;66.71
56241;BME280;42155;53.096;23.226;2023-05-01T02:58:37;100561.75;;;1.31;66.76
56241;BME280;42155;53.096;23.226;2023-05-01T03:00:37;100560.22;;;1.24;66.75
56241;BME280;42155;53.096;23.226;2023-05-01T03:02:38;100559.22;;;1.28;66.90
56241;BME280;42155;53.096;23.226;2023-05-01T03:04:39;100565.44;;;1.24;66.44
56241;BME280;42155;53.096;23.226;2023-05-01T03:06:39;100577.59;;;1.26;66.49
56241;BME280;42155;53.096;23.226;2023-05-01T03:08:39;100589.69;;;1.29;66.76
56241;BME280;42155;53.096;23.226;2023-05-01T03:10:40;100573.13;;;1.30;67.06
56241;BME280;42155;53.096;23.226;2023-05-01T03:12:40;100567.81;;;1.32;67.03
56241;BME280;42155;53.096;23.226;2023-05-01T03:14:40;100555.13;;;1.21;66.65
56241;BME280;42155;53.096;23.226;2023-05-01T03:16:41;100571.22;;;1.34;66.79
56241;BME280;42155;53.096;23.226;2023-05-01T03:18:41;100572.97;;;1.35;66.63
56241;BME280;42155;53.096;23.226;2023-05-01T03:20:50;100460.00;;;0.72;66.71
56241;BME280;42155;53.096;23.226;2023-05-01T03:22:51;100573.81;;;1.35;66.87
56241;BME280;42155;53.096;23.226;2023-05-01T03:24:51;100578.84;;;1.41;66.90
56241;BME280;42155;53.096;23.226;2023-05-01T03:26:51;100574.47;;;1.42;66.45
56241;BME280;42155;53.096;23.226;2023-05-01T03:28:52;100557.00;;;1.42;66.44
56241;BME280;42155;53.096;23.226;2023-05-01T03:30:52;100558.88;;;1.39;66.45
56241;BME280;42155;53.096;23.226;2023-05-01T03:32:52;100570.91;;;1.44;66.51
56241;BME280;42155;53.096;23.226;2023-05-01T03:34:53;100564.66;;;1.48;66.78
56241;BME280;42155;53.096;23.226;2023-05-01T03:36:53;100563.63;;;1.52;66.45
56241;BME280;42155;53.096;23.226;2023-05-01T03:38:53;100562.75;;;1.53;67.05
56241;BME280;42155;53.096;23.226;2023-05-01T03:40:54;100554.94;;;1.52;66.13
56241;BME280;42155;53.096;23.226;2023-05-01T03:42:54;100563.91;;;1.70;66.53
56241;BME280;42155;53.096;23.226;2023-05-01T03:44:54;100560.19;;;1.77;66.63
56241;BME280;42155;53.096;23.226;2023-05-01T03:46:54;100561.25;;;1.96;65.89
56241;BME280;42155;53.096;23.226;2023-05-01T03:48:55;100551.44;;;2.73;64.73
56241;BME280;42155;53.096;23.226;2023-05-01T03:50:55;100551.72;;;5.07;60.82
56241;BME280;42155;53.096;23.226;2023-05-01T03:52:55;100541.31;;;7.66;55.74
56241;BME280;42155;53.096;23.226;2023-05-01T03:54:56;100535.06;;;9.90;51.58
56241;BME280;42155;53.096;23.226;2023-05-01T03:56:56;100540.97;;;11.77;48.09
56241;BME280;42155;53.096;23.226;2023-05-01T03:58:58;100517.78;;;13.46;45.76
56241;BME280;42155;53.096;23.226;2023-05-01T04:00:59;100522.16;;;14.90;42.98
56241;BME280;42155;53.096;23.226;2023-05-01T04:02:59;100519.13;;;16.29;40.61
56241;BME280;42155;53.096;23.226;2023-05-01T04:05:00;100516.16;;;17.50;38.79
56241;BME280;42155;53.096;23.226;2023-05-01T04:07:00;100507.66;;;18.67;36.91
56241;BME280;42155;53.096;23.226;2023-05-01T04:09:00;100465.63;;;19.49;35.86
56241;BME280;42155;53.096;23.226;2023-05-01T04:11:01;100500.41;;;20.72;33.62
56241;BME280;42155;53.096;23.226;2023-05-01T04:13:01;100503.56;;;21.60;32.82
56241;BME280;42155;53.096;23.226;2023-05-01T04:15:01;100501.00;;;22.34;31.43
56241;BME280;42155;53.096;23.226;2023-05-01T04:17:02;100506.25;;;23.02;30.36
56241;BME280;42155;53.096;23.226;2023-05-01T04:19:02;100434.81;;;23.24;29.74
56241;BME280;42155;53.096;23.226;2023-05-01T04:21:02;100489.41;;;24.27;28.70
56241;BME280;42155;53.096;23.226;2023-05-01T04:23:03;100496.00;;;24.94;28.24
56241;BME280;42155;53.096;23.226;2023-05-01T04:25:03;100498.63;;;25.35;27.37
56241;BME280;42155;53.096;23.226;2023-05-01T04:27:04;100491.34;;;25.82;26.52
56241;BME280;42155;53.096;23.226;2023-05-01T04:29:04;100499.06;;;26.05;26.76
56241;BME280;42155;53.096;23.226;2023-05-01T04:31:04;100496.13;;;26.13;26.21
56241;BME280;42155;53.096;23.226;2023-05-01T04:33:05;100499.94;;;25.85;26.97
56241;BME280;42155;53.096;23.226;2023-05-01T04:35:05;100490.59;;;24.46;28.21
56241;BME280;42155;53.096;23.226;2023-05-01T04:37:06;100507.03;;;23.38;29.71
56241;BME280;42155;53.096;23.226;2023-05-01T04:39:06;100497.44;;;22.49;30.28
56241;BME280;42155;53.096;23.226;2023-05-01T04:41:06;100498.34;;;21.59;31.95
56241;BME280;42155;53.096;23.226;2023-05-01T04:43:07;100499.66;;;20.86;32.36
56241;BME280;42155;53.096;23.226;2023-05-01T04:45:07;100495.34;;;20.29;33.13
56241;BME280;42155;53.096;23.226;2023-05-01T04:47:08;100508.91;;;19.72;33.88
56241;BME280;42155;53.096;23.226;2023-05-01T04:49:08;100485.31;;;19.09;34.76
56241;BME280;42155;53.096;23.226;2023-05-01T04:51:08;100520.63;;;19.22;34.90
56241;BME280;42155;53.096;23.226;2023-05-01T04:53:09;100519.78;;;19.14;34.64
56241;BME280;42155;53.096;23.226;2023-05-01T04:55:09;100515.78;;;18.75;35.17
56241;BME280;42155;53.096;23.226;2023-05-01T04:57:09;100488.16;;;18.23;34.88
56241;BME280;42155;53.096;23.226;2023-05-01T04:59:10;100518.34;;;17.91;35.64
56241;BME280;42155;53.096;23.226;2023-05-01T05:01:10;100520.97;;;17.65;35.93
56241;BME280;42155;53.096;23.226;2023-05-01T05:03:10;100516.91;;;17.78;35.94
56241;BME280;42155;53.096;23.226;2023-05-01T05:05:11;100518.41;;;17.99;35.73
56241;BME280;42155;53.096;23.226;2023-05-01T05:07:11;100520.41;;;17.97;35.24
56241;BME280;42155;53.096;23.226;2023-05-01T05:09:12;100520.72;;;17.94;35.44
56241;BME280;42155;53.096;23.226;2023-05-01T05:11:13;100537.91;;;17.65;35.70
56241;BME280;42155;53.096;23.226;2023-05-01T05:13:13;100526.28;;;17.56;36.08
56241;BME280;42155;53.096;23.226;2023-05-01T05:15:13;100514.75;;;17.64;36.16
56241;BME280;42155;53.096;23.226;2023-05-01T05:17:14;100522.34;;;17.69;35.66
56241;BME280;42155;53.096;23.226;2023-05-01T05:19:15;100526.81;;;17.78;35.95
56241;BME280;42155;53.096;23.226;2023-05-01T05:21:15;100525.41;;;17.92;35.83
56241;BME280;42155;53.096;23.226;2023-05-01T05:23:15;100533.53;;;18.00;35.20
56241;BME280;42155;53.096;23.226;2023-05-01T05:25:16;100528.50;;;17.79;35.69
56241;BME280;42155;53.096;23.226;2023-05-01T05:27:16;100532.78;;;17.90;35.64
56241;BME280;42155;53.096;23.226;2023-05-01T05:29:16;100528.94;;;18.18;34.90
56241;BME280;42155;53.096;23.226;2023-05-01T05:31:17;100528.59;;;18.47;34.64
56241;BME280;42155;53.096;23.226;2023-05-01T05:33:17;100536.53;;;18.99;34.21
56241;BME280;42155;53.096;23.226;2023-05-01T05:35:18;100535.81;;;19.56;33.21
56241;BME280;42155;53.096;23.226;2023-05-01T05:37:18;100533.03;;;20.54;32.27
56241;BME280;42155;53.096;23.226;2023-05-01T05:39:20;100528.59;;;21.77;30.73
56241;BME280;42155;53.096;23.226;2023-05-01T05:41:20;100524.00;;;22.90;29.01
56241;BME280;42155;53.096;23.226;2023-05-01T05:43:21;100521.28;;;23.90;27.63
56241;BME280;42155;53.096;23.226;2023-05-01T05:45:21;100506.19;;;24.78;26.89
56241;BME280;42155;53.096;23.226;2023-05-01T05:47:21;100517.66;;;25.68;26.36
56241;BME280;42155;53.096;23.226;2023-05-01T05:49:22;100526.03;;;26.26;25.34
56241;BME280;42155;53.096;23.226;2023-05-01T05:51:22;100518.47;;;26.28;25.14
56241;BME280;42155;53.096;23.226;2023-05-01T05:53:22;100513.84;;;26.55;24.52
56241;BME280;42155;53.096;23.226;2023-05-01T05:55:23;100518.69;;;26.47;24.74
56241;BME280;42155;53.096;23.226;2023-05-01T05:57:23;100516.56;;;25.23;25.80
56241;BME280;42155;53.096;23.226;2023-05-01T05:59:23;100524.81;;;24.19;26.93
56241;BME280;42155;53.096;23.226;2023-05-01T06:01:24;100533.44;;;23.15;28.39
56241;BME280;42155;53.096;23.226;2023-05-01T06:03:24;100529.25;;;22.61;29.28
56241;BME280;42155;53.096;23.226;2023-05-01T06:05:24;100525.22;;;22.13;29.63
56241;BME280;42155;53.096;23.226;2023-05-01T06:07:25;100538.78;;;21.67;29.23
56241;BME280;42155;53.096;23.226;2023-05-01T06:09:25;100514.75;;;20.72;30.44
56241;BME280;42155;53.096;23.226;2023-05-01T06:11:25;100535.00;;;20.60;31.12
56241;BME280;42155;53.096;23.226;2023-05-01T06:13:26;100534.75;;;20.30;31.46
56241;BME280;42155;53.096;23.226;2023-05-01T06:15:26;100536.00;;;19.79;32.38
56241;BME280;42155;53.096;23.226;2023-05-01T06:17:26;100531.47;;;19.88;32.66
56241;BME280;42155;53.096;23.226;2023-05-01T06:19:27;100521.66;;;20.03;32.70
56241;BME280;42155;53.096;23.226;2023-05-01T06:21:27;100536.94;;;20.27;32.13
56241;BME280;42155;53.096;23.226;2023-05-01T06:23:27;100531.88;;;20.32;31.97
56241;BME280;42155;53.096;23.226;2023-05-01T06:25:28;100525.97;;;20.28;31.58
56241;BME280;42155;53.096;23.226;2023-05-01T06:27:28;100541.56;;;19.77;31.75
56241;BME280;42155;53.096;23.226;2023-05-01T06:29:28;100545.72;;;19.39;31.78
56241;BME280;42155;53.096;23.226;2023-05-01T06:31:29;100544.50;;;19.25;32.30
56241;BME280;42155;53.096;23.226;2023-05-01T06:33:29;100538.47;;;19.23;31.86
56241;BME280;42155;53.096;23.226;2023-05-01T06:35:30;100546.72;;;19.30;31.92
56241;BME280;42155;53.096;23.226;2023-05-01T06:37:30;100548.03;;;19.18;31.57
56241;BME280;42155;53.096;23.226;2023-05-01T06:39:30;100547.69;;;19.04;31.93
56241;BME280;42155;53.096;23.226;2023-05-01T06:41:30;100549.19;;;19.07;31.83
56241;BME280;42155;53.096;23.226;2023-05-01T06:43:31;100543.16;;;19.21;31.75
56241;BME280;42155;53.096;23.226;2023-05-01T06:45:31;100535.59;;;19.41;31.05
56241;BME280;42155;53.096;23.226;2023-05-01T06:47:32;100540.50;;;19.46;31.25
56241;BME280;42155;53.096;23.226;2023-05-01T06:49:32;100536.78;;;19.30;31.08
56241;BME280;42155;53.096;23.226;2023-05-01T06:51:32;100525.81;;;19.07;31.35
56241;BME280;42155;53.096;23.226;2023-05-01T06:53:33;100538.47;;;19.23;31.54
56241;BME280;42155;53.096;23.226;2023-05-01T06:55:33;100545.19;;;19.19;31.88
56241;BME280;42155;53.096;23.226;2023-05-01T06:57:33;100534.00;;;18.90;31.78
56241;BME280;42155;53.096;23.226;2023-05-01T06:59:34;100539.03;;;18.50;32.26
56241;BME280;42155;53.096;23.226;2023-05-01T07:01:34;100534.53;;;17.99;33.02
56241;BME280;42155;53.096;23.226;2023-05-01T07:03:34;100544.47;;;17.80;33.28
56241;BME280;42155;53.096;23.226;2023-05-01T07:05:35;100531.03;;;17.80;32.88
56241;BME280;42155;53.096;23.226;2023-05-01T07:07:35;100531.34;;;17.77;33.34
56241;BME280;42155;53.096;23.226;2023-05-01T07:09:35;100546.41;;;17.96;32.80
56241;BME280;42155;53.096;23.226;2023-05-01T07:11:36;100544.44;;;17.98;32.77
56241;BME280;42155;53.096;23.226;2023-05-01T07:13:36;100540.41;;;17.76;32.74
56241;BME280;42155;53.096;23.226;2023-05-01T07:15:36;100544.22;;;17.20;33.61
56241;BME280;42155;53.096;23.226;2023-05-01T07:17:37;100551.88;;;17.33;34.19
56241;BME280;42155;53.096;23.226;2023-05-01T07:19:37;100549.28;;;17.59;33.90
56241;BME280;42155;53.096;23.226;2023-05-01T07:21:38;100548.53;;;17.85;33.52
56241;BME280;42155;53.096;23.226;2023-05-01T07:23:39;100552.97;;;17.94;33.04
56241;BME280;42155;53.096;23.226;2023-05-01T07:25:39;100544.75;;;17.95;32.65
56241;BME280;42155;53.096;23.226;2023-05-01T07:27:39;100542.53;;;17.91;32.50
56241;BME280;42155;53.096;23.226;2023-05-01T07:29:40;100547.88;;;17.91;32.52
56241;BME280;42155;53.096;23.226;2023-05-01T07:31:41;100543.91;;;17.95;32.56
56241;BME280;42155;53.096;23.226;2023-05-01T07:33:41;100542.69;;;17.89;31.46
56241;BME280;42155;53.096;23.226;2023-05-01T07:35:41;100556.50;;;17.59;32.03
56241;BME280;42155;53.096;23.226;2023-05-01T07:37:42;100546.34;;;17.17;32.60
56241;BME280;42155;53.096;23.226;2023-05-01T07:39:43;100535.13;;;16.86;32.68
56241;BME280;42155;53.096;23.226;2023-05-01T07:41:43;100556.31;;;17.07;32.12
56241;BME280;42155;53.096;23.226;2023-05-01T07:43:43;100551.19;;;17.13;32.81
56241;BME280;42155;53.096;23.226;2023-05-01T07:45:56;100543.13;;;17.13;32.36
56241;BME280;42155;53.096;23.226;2023-05-01T07:47:57;100554.19;;;17.10;32.81
56241;BME280;42155;53.096;23.226;2023-05-01T07:49:57;100562.69;;;17.05;32.55
56241;BME280;42155;53.096;23.226;2023-05-01T07:51:57;100553.97;;;16.94;32.43
56241;BME280;42155;53.096;23.226;2023-05-01T07:53:58;100558.56;;;16.84;32.93
56241;BME280;42155;53.096;23.226;2023-05-01T07:56:07;100554.47;;;16.79;32.33
56241;BME280;42155;53.096;23.226;2023-05-01T07:58:07;100566.22;;;16.78;31.99
56241;BME280;42155;53.096;23.226;2023-05-01T08:00:09;100541.91;;;16.43;31.54
56241;BME280;42155;53.096;23.226;2023-05-01T08:02:09;100553.53;;;16.34;32.36
56241;BME280;42155;53.096;23.226;2023-05-01T08:04:10;100564.31;;;16.51;31.96
56241;BME280;42155;53.096;23.226;2023-05-01T08:06:10;100554.94;;;16.65;31.15
56241;BME280;42155;53.096;23.226;2023-05-01T08:08:10;100545.22;;;16.64;31.28
56241;BME280;42155;53.096;23.226;2023-05-01T08:10:11;100548.16;;;16.71;31.24
56241;BME280;42155;53.096;23.226;2023-05-01T08:12:12;100551.97;;;16.31;31.84
56241;BME280;42155;53.096;23.226;2023-05-01T08:14:12;100519.94;;;15.92;31.52
56241;BME280;42155;53.096;23.226;2023-05-01T08:16:12;100549.22;;;16.03;31.60
56241;BME280;42155;53.096;23.226;2023-05-01T08:18:13;100539.81;;;15.90;31.98
56241;BME280;42155;53.096;23.226;2023-05-01T08:20:14;100541.78;;;15.88;32.44
56241;BME280;42155;53.096;23.226;2023-05-01T08:22:15;100546.47;;;15.86;31.94
56241;BME280;42155;53.096;23.226;2023-05-01T08:24:15;100549.81;;;15.88;31.94
56241;BME280;42155;53.096;23.226;2023-05-01T08:26:16;100552.09;;;15.73;31.87
56241;BME280;42155;53.096;23.226;2023-05-01T08:28:17;100551.78;;;15.76;32.04
56241;BME280;42155;53.096;23.226;2023-05-01T08:30:18;100481.25;;;15.48;31.90
56241;BME280;42155;53.096;23.226;2023-05-01T08:32:18;100550.94;;;16.04;32.12
56241;BME280;42155;53.096;23.226;2023-05-01T08:34:18;100541.19;;;16.13;31.82
56241;BME280;42155;53.096;23.226;2023-05-01T08:36:19;100542.69;;;16.25;32.39
56241;BME280;42155;53.096;23.226;2023-05-01T08:38:19;100534.59;;;16.35;32.88
56241;BME280;42155;53.096;23.226;2023-05-01T08:40:20;100508.53;;;16.37;33.04
56241;BME280;42155;53.096;23.226;2023-05-01T08:42:21;100515.53;;;16.48;32.27
56241;BME280;42155;53.096;23.226;2023-05-01T08:44:24;100473.81;;;16.18;32.52
56241;BME280;42155;53.096;23.226;2023-05-01T08:48:42;100531.38;;;16.41;32.85
56241;BME280;42155;53.096;23.226;2023-05-01T08:50:45;100537.41;;;16.43;33.07
56241;BME280;42155;53.096;23.226;2023-05-01T08:52:46;100536.28;;;16.46;32.20
56241;BME280;42155;53.096;23.226;2023-05-01T08:54:47;100532.59;;;16.47;32.20
56241;BME280;42155;53.096;23.226;2023-05-01T08:56:50;100543.84;;;16.60;31.99
56241;BME280;42155;53.096;23.226;2023-05-01T08:58:52;100542.28;;;16.58;32.04
56241;BME280;42155;53.096;23.226;2023-05-01T09:00:55;100532.72;;;16.55;32.16
56241;BME280;42155;53.096;23.226;2023-05-01T09:02:59;100539.75;;;16.56;32.78
56241;BME280;42155;53.096;23.226;2023-05-01T09:05:01;100540.00;;;16.63;32.89
56241;BME280;42155;53.096;23.226;2023-05-01T09:07:02;100537.59;;;16.69;33.04
56241;BME280;42155;53.096;23.226;2023-05-01T09:09:03;100520.94;;;16.75;32.51
56241;BME280;42155;53.096;23.226;2023-05-01T09:11:03;100535.47;;;16.73;32.10
56241;BME280;42155;53.096;23.226;2023-05-01T09:13:03;100530.44;;;16.60;31.97
56241;BME280;42155;53.096;23.226;2023-05-01T09:15:04;100545.41;;;16.53;32.02
56241;BME280;42155;53.096;23.226;2023-05-01T09:17:05;100538.56;;;16.41;32.33
56241;BME280;42155;53.096;23.226;2023-05-01T09:19:05;100509.84;;;16.23;32.39
56241;BME280;42155;53.096;23.226;2023-05-01T09:21:06;100511.56;;;16.15;32.49
56241;BME280;42155;53.096;23.226;2023-05-01T09:23:06;100533.66;;;16.26;32.64
56241;BME280;42155;53.096;23.226;2023-05-01T09:25:07;100532.53;;;16.29;32.28
56241;BME280;42155;53.096;23.226;2023-05-01T09:27:08;100427.31;;;15.52;31.82
56241;BME280;42155;53.096;23.226;2023-05-01T09:29:09;100521.50;;;15.75;33.13
56241;BME280;42155;53.096;23.226;2023-05-01T09:33:22;100523.31;;;15.94;32.56
56241;BME280;42155;53.096;23.226;2023-05-01T09:35:22;100511.47;;;15.97;31.91
56241;BME280;42155;53.096;23.226;2023-05-01T09:39:26;100517.44;;;15.81;32.62
56241;BME280;42155;53.096;23.226;2023-05-01T09:41:26;100520.97;;;15.82;33.30
56241;BME280;42155;53.096;23.226;2023-05-01T09:43:28;100509.53;;;15.79;33.27
56241;BME280;42155;53.096;23.226;2023-05-01T09:45:28;100528.13;;;15.91;33.12
56241;BME280;42155;53.096;23.226;2023-05-01T09:47:29;100523.47;;;15.93;32.92
56241;BME280;42155;53.096;23.226;2023-05-01T09:49:46;100516.28;;;15.84;33.05
56241;BME280;42155;53.096;23.226;2023-05-01T09:51:47;100517.97;;;15.85;33.52
56241;BME280;42155;53.096;23.226;2023-05-01T09:53:49;100513.63;;;15.84;33.57
56241;BME280;42155;53.096;23.226;2023-05-01T09:55:59;100525.16;;;15.84;34.15
56241;BME280;42155;53.096;23.226;2023-05-01T09:58:01;100508.13;;;15.75;33.52
56241;BME280;42155;53.096;23.226;2023-05-01T10:00:02;100465.75;;;15.61;33.66
56241;BME280;42155;53.096;23.226;2023-05-01T10:02:02;100504.72;;;15.93;33.80
56241;BME280;42155;53.096;23.226;2023-05-01T10:04:03;100500.53;;;15.90;34.39
56241;BME280;42155;53.096;23.226;2023-05-01T10:06:03;100471.06;;;15.81;34.33
56241;BME280;42155;53.096;23.226;2023-05-01T10:08:04;100489.47;;;16.03;34.40
56241;BME280;42155;53.096;23.226;2023-05-01T10:10:21;100494.25;;;16.09;34.28
56241;BME280;42155;53.096;23.226;2023-05-01T10:12:25;100467.66;;;15.98;33.88
56241;BME280;42155;53.096;23.226;2023-05-01T10:14:26;100434.91;;;15.76;33.74
56241;BME280;42155;53.096;23.226;2023-05-01T10:16:28;100499.31;;;16.12;34.09
56241;BME280;42155;53.096;23.226;2023-05-01T10:18:30;100470.88;;;16.01;33.68
56241;BME280;42155;53.096;23.226;2023-05-01T10:20:34;100491.00;;;16.15;33.64
56241;BME280;42155;53.096;23.226;2023-05-01T10:22:34;100450.91;;;15.96;34.12
56241;BME280;42155;53.096;23.226;2023-05-01T10:24:35;100492.09;;;16.22;34.07
56241;BME280;42155;53.096;23.226;2023-05-01T10:26:36;100479.88;;;16.10;34.32
56241;BME280;42155;53.096;23.226;2023-05-01T10:28:37;100492.38;;;16.19;34.63
56241;BME280;42155;53.096;23.226;2023-05-01T10:30:38;100491.41;;;16.20;34.14
56241;BME280;42155;53.096;23.226;2023-05-01T10:32:41;100492.50;;;16.27;34.08
56241;BME280;42155;53.096;23.226;2023-05-01T10:34:46;100501.94;;;16.32;34.18
56241;BME280;42155;53.096;23.226;2023-05-01T10:36:56;100485.16;;;16.29;34.04
56241;BME280;42155;53.096;23.226;2023-05-01T10:38:56;100473.16;;;16.34;33.57
56241;BME280;42155;53.096;23.226;2023-05-01T10:40:57;100463.44;;;16.33;34.28
56241;BME280;42155;53.096;23.226;2023-05-01T10:43:20;100476.06;;;16.40;34.05
56241;BME280;42155;53.096;23.226;2023-05-01T10:45:27;100486.63;;;16.14;34.82
56241;BME280;42155;53.096;23.226;2023-05-01T10:50:05;100484.91;;;16.23;34.60
56241;BME280;42155;53.096;23.226;2023-05-01T10:52:06;100483.75;;;16.25;34.26
56241;BME280;42155;53.096;23.226;2023-05-01T11:00:37;100468.00;;;16.22;33.68